San Louis Obispo

Airport
ICAO code: 
KSBP
Summary
ICAO Region: 
NAM
Territory: 
Location: 
San Luis Obispo, California,
Serving: 
San Luis Obispo County
Coordinates: 
Aerial View: 
35° 14' 15.624" N, 120° 38' 27.85" W
Metar
Observation
KSBP 060056Z 31011KT 10SM CLR 14/11 A3011 RMK AO2 SLP196 T01390106
Station
San Luis Obispo, San Luis Obispo County-Mc Chesney Field
Date/Time
2021-12-06 00:56:00
Wind direction
310°
Wind speed
11 kts
Lowest cloud amount
n/a
Temperature
13.9°C
Dew point
10.6°C
Humidity
80%
Weather condition
n/a

Description

San Luis Obispo County Regional Airport (IATA: SBP), also known as McChesney Field, is an airport located in San Luis Obispo, California serving San Luis Obispo County.

Climatology

Dry-summer subtropical ”Mediterranean" climate (Köppen climate classification Csb) - characterized by warm, dry summers and mild winters.

Runways

Designator Length Width Surface Rops
7/25 994 30 ASP Yes/Yes
11/29 1615 46 ASP Yes/Yes
Airport map: 
Aerial View: 

SKYbrary Partners:

Safety knowledge contributed by: